Aviation Digital Data Service (ADDS)

Output produced by TAFs form (2046 UTC 28 February 2015)
found at http://aviationweather.gov/adds/tafs/
 
KVEL 281738Z 2818/0118 VRB03KT P6SM BKN040 
     FM282100 11005KT P6SM VCSH BKN045 OVC070 
     FM010100 07003KT P6SM OVC060 
     FM010700 04004KT 6SM -SN BR OVC025 
     FM011000 04005KT 5SM BR OVC020